sensor_id;sensor_type;location;lat;lon;timestamp;pressure;altitude;pressure_sealevel;temperature;humidity
70968;BME280;58629;48.808;8.820;2022-10-31T00:00:50;97631.06;;;8.69;100.00
70968;BME280;58629;48.808;8.820;2022-10-31T00:03:16;97625.78;;;8.62;100.00
70968;BME280;58629;48.808;8.820;2022-10-31T00:05:44;97631.84;;;8.59;100.00
70968;BME280;58629;48.808;8.820;2022-10-31T00:08:10;97634.50;;;8.59;100.00
70968;BME280;58629;48.808;8.820;2022-10-31T00:10:40;97634.50;;;8.55;100.00
70968;BME280;58629;48.808;8.820;2022-10-31T00:13:06;97629.97;;;8.52;100.00
70968;BME280;58629;48.808;8.820;2022-10-31T00:15:36;97627.34;;;8.49;100.00
70968;BME280;58629;48.808;8.820;2022-10-31T00:18:02;97624.72;;;8.45;100.00
70968;BME280;58629;48.808;8.820;2022-10-31T00:20:28;97634.88;;;8.43;100.00
70968;BME280;58629;48.808;8.820;2022-10-31T00:22:57;97634.50;;;8.45;100.00
70968;BME280;58629;48.808;8.820;2022-10-31T00:25:22;97631.50;;;8.43;100.00
70968;BME280;58629;48.808;8.820;2022-10-31T00:27:47;97632.25;;;8.36;100.00
70968;BME280;58629;48.808;8.820;2022-10-31T00:30:13;97631.13;;;8.37;100.00
70968;BME280;58629;48.808;8.820;2022-10-31T00:32:38;97633.00;;;8.33;100.00
70968;BME280;58629;48.808;8.820;2022-10-31T00:35:04;97635.66;;;8.33;100.00
70968;BME280;58629;48.808;8.820;2022-10-31T00:37:29;97629.63;;;8.33;100.00
70968;BME280;58629;48.808;8.820;2022-10-31T00:39:54;97625.47;;;8.32;100.00
70968;BME280;58629;48.808;8.820;2022-10-31T00:42:19;97637.91;;;8.31;100.00
70968;BME280;58629;48.808;8.820;2022-10-31T00:44:45;97628.13;;;8.32;100.00
70968;BME280;58629;48.808;8.820;2022-10-31T00:47:10;97634.91;;;8.33;100.00
70968;BME280;58629;48.808;8.820;2022-10-31T00:49:35;97637.50;;;8.22;100.00
70968;BME280;58629;48.808;8.820;2022-10-31T00:52:00;97635.25;;;8.17;100.00
70968;BME280;58629;48.808;8.820;2022-10-31T00:54:26;97636.75;;;8.08;100.00
70968;BME280;58629;48.808;8.820;2022-10-31T00:56:51;97630.75;;;8.00;100.00
70968;BME280;58629;48.808;8.820;2022-10-31T00:59:16;97634.50;;;8.03;100.00
70968;BME280;58629;48.808;8.820;2022-10-31T01:01:41;97629.22;;;8.06;100.00
70968;BME280;58629;48.808;8.820;2022-10-31T01:04:07;97635.63;;;8.09;100.00
70968;BME280;58629;48.808;8.820;2022-10-31T01:06:32;97632.97;;;8.09;100.00
70968;BME280;58629;48.808;8.820;2022-10-31T01:08:57;97630.72;;;8.11;100.00
70968;BME280;58629;48.808;8.820;2022-10-31T01:11:23;97634.13;;;8.11;100.00
70968;BME280;58629;48.808;8.820;2022-10-31T01:13:52;97627.31;;;8.10;100.00
70968;BME280;58629;48.808;8.820;2022-10-31T01:16:21;97627.34;;;8.03;100.00
70968;BME280;58629;48.808;8.820;2022-10-31T01:18:46;97630.72;;;8.04;100.00
70968;BME280;58629;48.808;8.820;2022-10-31T01:21:21;97633.00;;;8.02;100.00
70968;BME280;58629;48.808;8.820;2022-10-31T01:23:46;97625.81;;;7.95;100.00
70968;BME280;58629;48.808;8.820;2022-10-31T01:26:20;97632.59;;;7.89;100.00
70968;BME280;58629;48.808;8.820;2022-10-31T01:28:49;97626.56;;;7.78;100.00
70968;BME280;58629;48.808;8.820;2022-10-31T01:31:15;97629.56;;;7.76;100.00
70968;BME280;58629;48.808;8.820;2022-10-31T01:33:41;97623.91;;;7.71;100.00
70968;BME280;58629;48.808;8.820;2022-10-31T01:36:33;97627.28;;;7.54;100.00
70968;BME280;58629;48.808;8.820;2022-10-31T01:39:02;97625.00;;;7.45;100.00
70968;BME280;58629;48.808;8.820;2022-10-31T01:41:30;97627.28;;;7.50;100.00
70968;BME280;58629;48.808;8.820;2022-10-31T01:44:01;97620.53;;;7.56;100.00
70968;BME280;58629;48.808;8.820;2022-10-31T01:46:36;97623.16;;;7.63;100.00
70968;BME280;58629;48.808;8.820;2022-10-31T01:49:13;97619.78;;;7.66;100.00
70968;BME280;58629;48.808;8.820;2022-10-31T01:51:48;97615.66;;;7.72;100.00
70968;BME280;58629;48.808;8.820;2022-10-31T01:54:16;97618.66;;;7.71;100.00
70968;BME280;58629;48.808;8.820;2022-10-31T01:56:46;97611.50;;;7.71;100.00
70968;BME280;58629;48.808;8.820;2022-10-31T01:59:15;97617.91;;;7.74;100.00
70968;BME280;58629;48.808;8.820;2022-10-31T02:01:42;97613.00;;;7.76;100.00
70968;BME280;58629;48.808;8.820;2022-10-31T02:04:07;97618.28;;;7.76;100.00
70968;BME280;58629;48.808;8.820;2022-10-31T02:06:40;97617.16;;;7.77;100.00
70968;BME280;58629;48.808;8.820;2022-10-31T02:09:08;97616.75;;;7.75;100.00
70968;BME280;58629;48.808;8.820;2022-10-31T02:11:35;97618.28;;;7.76;100.00
70968;BME280;58629;48.808;8.820;2022-10-31T02:14:02;97619.78;;;7.73;100.00
70968;BME280;58629;48.808;8.820;2022-10-31T02:16:27;97622.41;;;7.70;100.00
70968;BME280;58629;48.808;8.820;2022-10-31T02:18:53;97613.00;;;7.62;100.00
70968;BME280;58629;48.808;8.820;2022-10-31T02:21:25;97618.25;;;7.58;100.00
70968;BME280;58629;48.808;8.820;2022-10-31T02:27:02;97612.97;;;7.51;100.00
70968;BME280;58629;48.808;8.820;2022-10-31T02:32:42;97608.84;;;7.50;100.00
70968;BME280;58629;48.808;8.820;2022-10-31T02:40:39;97608.06;;;7.46;100.00
70968;BME280;58629;48.808;8.820;2022-10-31T02:43:28;97603.53;;;7.47;100.00
70968;BME280;58629;48.808;8.820;2022-10-31T02:46:13;97606.16;;;7.47;100.00
70968;BME280;58629;48.808;8.820;2022-10-31T02:48:42;97605.81;;;7.48;100.00
70968;BME280;58629;48.808;8.820;2022-10-31T02:51:09;97608.84;;;7.50;100.00
70968;BME280;58629;48.808;8.820;2022-10-31T02:53:36;97606.56;;;7.49;100.00
70968;BME280;58629;48.808;8.820;2022-10-31T02:56:06;97608.47;;;7.48;100.00
70968;BME280;58629;48.808;8.820;2022-10-31T02:58:38;97612.59;;;7.46;100.00
70968;BME280;58629;48.808;8.820;2022-10-31T03:01:45;97608.47;;;7.48;100.00
70968;BME280;58629;48.808;8.820;2022-10-31T03:07:41;97605.78;;;7.45;100.00
70968;BME280;58629;48.808;8.820;2022-10-31T03:10:14;97606.94;;;7.44;100.00
70968;BME280;58629;48.808;8.820;2022-10-31T03:15:27;97605.06;;;7.44;100.00
70968;BME280;58629;48.808;8.820;2022-10-31T03:18:04;97605.41;;;7.43;100.00
70968;BME280;58629;48.808;8.820;2022-10-31T03:20:46;97608.81;;;7.43;100.00
70968;BME280;58629;48.808;8.820;2022-10-31T03:23:15;97599.75;;;7.41;100.00
70968;BME280;58629;48.808;8.820;2022-10-31T03:25:43;97596.00;;;7.38;100.00
70968;BME280;58629;48.808;8.820;2022-10-31T03:28:12;97595.97;;;7.31;100.00
70968;BME280;58629;48.808;8.820;2022-10-31T03:30:42;97602.72;;;7.25;100.00
70968;BME280;58629;48.808;8.820;2022-10-31T03:33:12;97597.47;;;7.25;100.00
70968;BME280;58629;48.808;8.820;2022-10-31T03:35:42;97599.38;;;7.25;100.00
70968;BME280;58629;48.808;8.820;2022-10-31T03:38:08;97596.34;;;7.23;100.00
70968;BME280;58629;48.808;8.820;2022-10-31T03:40:36;97595.94;;;7.17;100.00
70968;BME280;58629;48.808;8.820;2022-10-31T03:43:10;97595.19;;;7.17;100.00
70968;BME280;58629;48.808;8.820;2022-10-31T03:45:45;97592.94;;;7.19;100.00
70968;BME280;58629;48.808;8.820;2022-10-31T03:48:12;97594.81;;;7.15;100.00
70968;BME280;58629;48.808;8.820;2022-10-31T03:51:07;97593.28;;;7.14;100.00
70968;BME280;58629;48.808;8.820;2022-10-31T03:53:37;97594.06;;;7.11;100.00
70968;BME280;58629;48.808;8.820;2022-10-31T03:56:17;97598.94;;;7.12;100.00
70968;BME280;58629;48.808;8.820;2022-10-31T03:58:59;97594.06;;;7.14;100.00
70968;BME280;58629;48.808;8.820;2022-10-31T04:01:26;97594.78;;;7.11;100.00
70968;BME280;58629;48.808;8.820;2022-10-31T04:03:54;97584.63;;;7.13;100.00
70968;BME280;58629;48.808;8.820;2022-10-31T04:06:20;97590.66;;;7.14;100.00
70968;BME280;58629;48.808;8.820;2022-10-31T04:08:56;97589.88;;;7.06;100.00
70968;BME280;58629;48.808;8.820;2022-10-31T04:11:25;97590.66;;;7.03;100.00
70968;BME280;58629;48.808;8.820;2022-10-31T04:13:53;97582.75;;;7.03;100.00
70968;BME280;58629;48.808;8.820;2022-10-31T04:16:20;97588.03;;;7.07;100.00
70968;BME280;58629;48.808;8.820;2022-10-31T04:18:46;97589.53;;;7.11;100.00
70968;BME280;58629;48.808;8.820;2022-10-31T04:21:12;97583.53;;;7.11;100.00
70968;BME280;58629;48.808;8.820;2022-10-31T04:23:37;97586.88;;;7.11;100.00
70968;BME280;58629;48.808;8.820;2022-10-31T04:26:02;97588.41;;;7.12;100.00
70968;BME280;58629;48.808;8.820;2022-10-31T04:28:28;97584.28;;;7.15;100.00
70968;BME280;58629;48.808;8.820;2022-10-31T04:30:53;97585.00;;;7.15;100.00
70968;BME280;58629;48.808;8.820;2022-10-31T04:33:18;97579.75;;;7.15;100.00
70968;BME280;58629;48.808;8.820;2022-10-31T04:35:44;97575.25;;;7.16;100.00
70968;BME280;58629;48.808;8.820;2022-10-31T04:38:10;97573.00;;;7.18;100.00
70968;BME280;58629;48.808;8.820;2022-10-31T04:40:35;97575.63;;;7.21;100.00
70968;BME280;58629;48.808;8.820;2022-10-31T04:43:00;97573.75;;;7.15;100.00
70968;BME280;58629;48.808;8.820;2022-10-31T04:45:26;97571.47;;;7.10;100.00
70968;BME280;58629;48.808;8.820;2022-10-31T04:47:51;97571.47;;;7.06;100.00
70968;BME280;58629;48.808;8.820;2022-10-31T04:50:16;97569.97;;;7.05;100.00
70968;BME280;58629;48.808;8.820;2022-10-31T04:52:43;97568.06;;;7.06;100.00
70968;BME280;58629;48.808;8.820;2022-10-31T04:55:09;97565.44;;;7.09;100.00
70968;BME280;58629;48.808;8.820;2022-10-31T04:57:42;97565.09;;;7.07;100.00
70968;BME280;58629;48.808;8.820;2022-10-31T05:00:08;97562.41;;;7.03;100.00
70968;BME280;58629;48.808;8.820;2022-10-31T05:02:34;97568.06;;;7.02;100.00
70968;BME280;58629;48.808;8.820;2022-10-31T05:04:59;97562.78;;;7.02;100.00
70968;BME280;58629;48.808;8.820;2022-10-31T05:07:24;97563.91;;;6.97;100.00
70968;BME280;58629;48.808;8.820;2022-10-31T05:09:49;97553.69;;;6.85;100.00
70968;BME280;58629;48.808;8.820;2022-10-31T05:12:15;97558.59;;;6.83;100.00
70968;BME280;58629;48.808;8.820;2022-10-31T05:14:40;97561.97;;;6.80;100.00
70968;BME280;58629;48.808;8.820;2022-10-31T05:17:05;97561.59;;;6.78;100.00
70968;BME280;58629;48.808;8.820;2022-10-31T05:19:30;97558.59;;;6.83;100.00
70968;BME280;58629;48.808;8.820;2022-10-31T05:21:56;97556.72;;;6.87;100.00
70968;BME280;58629;48.808;8.820;2022-10-31T05:24:21;97552.97;;;6.88;100.00
70968;BME280;58629;48.808;8.820;2022-10-31T05:26:47;97545.44;;;6.87;100.00
70968;BME280;58629;48.808;8.820;2022-10-31T05:29:12;97540.53;;;6.82;100.00
70968;BME280;58629;48.808;8.820;2022-10-31T05:31:37;97551.44;;;6.80;100.00
70968;BME280;58629;48.808;8.820;2022-10-31T05:34:03;97551.78;;;6.72;100.00
70968;BME280;58629;48.808;8.820;2022-10-31T05:36:28;97547.59;;;6.60;100.00
70968;BME280;58629;48.808;8.820;2022-10-31T05:38:53;97550.59;;;6.59;100.00
70968;BME280;58629;48.808;8.820;2022-10-31T05:41:18;97541.19;;;6.58;100.00
70968;BME280;58629;48.808;8.820;2022-10-31T05:43:45;97543.03;;;6.54;100.00
70968;BME280;58629;48.808;8.820;2022-10-31T05:46:10;97539.31;;;6.55;100.00
70968;BME280;58629;48.808;8.820;2022-10-31T05:48:35;97539.69;;;6.60;100.00
70968;BME280;58629;48.808;8.820;2022-10-31T05:51:00;97543.81;;;6.58;100.00
70968;BME280;58629;48.808;8.820;2022-10-31T05:53:26;97547.22;;;6.62;100.00
70968;BME280;58629;48.808;8.820;2022-10-31T05:55:51;97539.72;;;6.64;100.00
70968;BME280;58629;48.808;8.820;2022-10-31T05:58:16;97547.63;;;6.67;100.00
70968;BME280;58629;48.808;8.820;2022-10-31T06:00:42;97540.47;;;6.68;100.00
70968;BME280;58629;48.808;8.820;2022-10-31T06:03:08;97547.97;;;6.66;100.00
70968;BME280;58629;48.808;8.820;2022-10-31T06:05:33;97541.22;;;6.65;100.00
70968;BME280;58629;48.808;8.820;2022-10-31T06:07:59;97537.06;;;6.64;100.00
70968;BME280;58629;48.808;8.820;2022-10-31T06:10:25;97525.81;;;6.67;100.00
70968;BME280;58629;48.808;8.820;2022-10-31T06:12:50;97530.31;;;6.66;100.00
70968;BME280;58629;48.808;8.820;2022-10-31T06:15:16;97531.84;;;6.67;100.00
70968;BME280;58629;48.808;8.820;2022-10-31T06:17:42;97535.59;;;6.66;100.00
70968;BME280;58629;48.808;8.820;2022-10-31T06:20:08;97533.31;;;6.61;100.00
70968;BME280;58629;48.808;8.820;2022-10-31T06:22:33;97529.50;;;6.48;99.89
70968;BME280;58629;48.808;8.820;2022-10-31T06:24:59;97523.47;;;6.44;100.00
70968;BME280;58629;48.808;8.820;2022-10-31T06:27:24;97530.97;;;6.42;100.00
70968;BME280;58629;48.808;8.820;2022-10-31T06:29:50;97528.34;;;6.42;100.00
70968;BME280;58629;48.808;8.820;2022-10-31T06:32:16;97524.59;;;6.43;100.00
70968;BME280;58629;48.808;8.820;2022-10-31T06:34:42;97520.81;;;6.41;100.00
70968;BME280;58629;48.808;8.820;2022-10-31T06:37:09;97528.31;;;6.39;100.00
70968;BME280;58629;48.808;8.820;2022-10-31T06:39:35;97532.88;;;6.42;100.00
70968;BME280;58629;48.808;8.820;2022-10-31T06:42:00;97527.63;;;6.49;100.00
70968;BME280;58629;48.808;8.820;2022-10-31T06:44:26;97522.00;;;6.54;100.00
70968;BME280;58629;48.808;8.820;2022-10-31T06:46:51;97521.66;;;6.55;100.00
70968;BME280;58629;48.808;8.820;2022-10-31T06:49:16;97528.41;;;6.60;100.00
70968;BME280;58629;48.808;8.820;2022-10-31T06:51:42;97528.06;;;6.65;100.00
70968;BME280;58629;48.808;8.820;2022-10-31T06:54:07;97531.47;;;6.65;100.00
70968;BME280;58629;48.808;8.820;2022-10-31T06:56:32;97530.38;;;6.73;100.00
70968;BME280;58629;48.808;8.820;2022-10-31T06:58:58;97530.38;;;6.77;100.00
70968;BME280;58629;48.808;8.820;2022-10-31T07:01:23;97530.38;;;6.80;100.00
70968;BME280;58629;48.808;8.820;2022-10-31T07:03:48;97530.00;;;6.78;100.00
70968;BME280;58629;48.808;8.820;2022-10-31T07:06:13;97531.16;;;6.84;100.00
70968;BME280;58629;48.808;8.820;2022-10-31T07:08:39;97537.19;;;6.92;100.00
70968;BME280;58629;48.808;8.820;2022-10-31T07:11:04;97541.69;;;6.91;100.00
70968;BME280;58629;48.808;8.820;2022-10-31T07:13:29;97539.44;;;6.90;100.00
70968;BME280;58629;48.808;8.820;2022-10-31T07:15:59;97544.69;;;6.90;100.00
70968;BME280;58629;48.808;8.820;2022-10-31T07:18:25;97536.03;;;6.89;100.00
70968;BME280;58629;48.808;8.820;2022-10-31T07:20:52;97543.59;;;6.94;100.00
70968;BME280;58629;48.808;8.820;2022-10-31T07:23:17;97543.22;;;6.96;100.00
70968;BME280;58629;48.808;8.820;2022-10-31T07:25:42;97542.09;;;7.04;100.00
70968;BME280;58629;48.808;8.820;2022-10-31T07:28:08;97542.13;;;7.11;100.00
70968;BME280;58629;48.808;8.820;2022-10-31T07:30:34;97545.91;;;7.17;100.00
70968;BME280;58629;48.808;8.820;2022-10-31T07:32:59;97553.44;;;7.26;100.00
70968;BME280;58629;48.808;8.820;2022-10-31T07:35:26;97553.44;;;7.29;100.00
70968;BME280;58629;48.808;8.820;2022-10-31T07:37:52;97551.94;;;7.35;100.00
70968;BME280;58629;48.808;8.820;2022-10-31T07:40:18;97554.63;;;7.46;100.00
70968;BME280;58629;48.808;8.820;2022-10-31T07:42:46;97552.34;;;7.51;100.00
70968;BME280;58629;48.808;8.820;2022-10-31T07:45:14;97558.03;;;7.60;100.00
70968;BME280;58629;48.808;8.820;2022-10-31T07:47:40;97568.56;;;7.67;100.00
70968;BME280;58629;48.808;8.820;2022-10-31T07:50:07;97560.66;;;7.71;100.00
70968;BME280;58629;48.808;8.820;2022-10-31T07:52:33;97556.88;;;7.79;100.00
70968;BME280;58629;48.808;8.820;2022-10-31T07:54:58;97556.53;;;7.84;100.00
70968;BME280;58629;48.808;8.820;2022-10-31T07:57:23;97558.75;;;7.93;100.00
70968;BME280;58629;48.808;8.820;2022-10-31T07:59:49;97554.63;;;7.99;100.00
70968;BME280;58629;48.808;8.820;2022-10-31T08:02:14;97552.75;;;8.10;100.00
70968;BME280;58629;48.808;8.820;2022-10-31T08:04:39;97551.22;;;8.19;100.00
70968;BME280;58629;48.808;8.820;2022-10-31T08:07:04;97551.59;;;8.25;100.00
70968;BME280;58629;48.808;8.820;2022-10-31T08:09:30;97549.31;;;8.30;100.00
70968;BME280;58629;48.808;8.820;2022-10-31T08:11:55;97552.69;;;8.38;100.00
70968;BME280;58629;48.808;8.820;2022-10-31T08:14:20;97547.41;;;8.48;100.00
70968;BME280;58629;48.808;8.820;2022-10-31T08:16:46;97544.38;;;8.57;100.00
70968;BME280;58629;48.808;8.820;2022-10-31T08:19:11;97534.53;;;8.64;100.00
70968;BME280;58629;48.808;8.820;2022-10-31T08:21:36;97534.09;;;8.77;100.00
70968;BME280;58629;48.808;8.820;2022-10-31T08:24:02;97537.06;;;8.86;100.00
70968;BME280;58629;48.808;8.820;2022-10-31T08:26:27;97534.03;;;8.94;100.00
70968;BME280;58629;48.808;8.820;2022-10-31T08:28:52;97522.25;;;9.06;100.00
70968;BME280;58629;48.808;8.820;2022-10-31T08:31:19;97526.34;;;9.17;100.00
70968;BME280;58629;48.808;8.820;2022-10-31T08:33:45;97519.88;;;9.25;100.00
70968;BME280;58629;48.808;8.820;2022-10-31T08:36:10;97524.72;;;9.37;100.00
70968;BME280;58629;48.808;8.820;2022-10-31T08:38:35;97524.59;;;9.51;100.00
70968;BME280;58629;48.808;8.820;2022-10-31T08:41:00;97521.94;;;9.55;99.47
70968;BME280;58629;48.808;8.820;2022-10-31T08:43:26;97523.41;;;9.59;98.90
70968;BME280;58629;48.808;8.820;2022-10-31T08:45:51;97516.56;;;9.66;98.73
70968;BME280;58629;48.808;8.820;2022-10-31T08:48:19;97515.41;;;9.70;98.30
70968;BME280;58629;48.808;8.820;2022-10-31T08:50:45;97510.84;;;9.74;97.96
70968;BME280;58629;48.808;8.820;2022-10-31T08:53:13;97508.50;;;9.83;98.75
70968;BME280;58629;48.808;8.820;2022-10-31T08:55:40;97500.16;;;9.88;98.20
70968;BME280;58629;48.808;8.820;2022-10-31T08:58:09;97499.94;;;10.09;100.00
70968;BME280;58629;48.808;8.820;2022-10-31T09:00:35;97497.28;;;10.09;99.40
70968;BME280;58629;48.808;8.820;2022-10-31T09:03:10;97496.41;;;10.23;99.63
70968;BME280;58629;48.808;8.820;2022-10-31T09:05:36;97494.44;;;10.30;98.21
70968;BME280;58629;48.808;8.820;2022-10-31T09:08:02;97492.47;;;10.38;96.26
70968;BME280;58629;48.808;8.820;2022-10-31T09:10:28;97489.69;;;10.48;96.35
70968;BME280;58629;48.808;8.820;2022-10-31T09:12:58;97480.53;;;10.57;95.95
70968;BME280;58629;48.808;8.820;2022-10-31T09:15:25;97480.41;;;10.67;94.24
70968;BME280;58629;48.808;8.820;2022-10-31T09:17:51;97474.97;;;10.78;94.44
70968;BME280;58629;48.808;8.820;2022-10-31T09:20:16;97479.72;;;10.90;94.62
70968;BME280;58629;48.808;8.820;2022-10-31T09:22:42;97480.53;;;11.13;98.07
70968;BME280;58629;48.808;8.820;2022-10-31T09:25:08;97488.19;;;11.58;100.00
70968;BME280;58629;48.808;8.820;2022-10-31T09:27:33;97484.22;;;11.92;100.00
70968;BME280;58629;48.808;8.820;2022-10-31T09:29:58;97480.13;;;12.31;100.00
70968;BME280;58629;48.808;8.820;2022-10-31T09:32:24;97476.41;;;12.64;99.62
70968;BME280;58629;48.808;8.820;2022-10-31T09:34:49;97477.72;;;12.91;97.67
70968;BME280;58629;48.808;8.820;2022-10-31T09:37:22;97473.81;;;13.16;96.16
70968;BME280;58629;48.808;8.820;2022-10-31T09:39:47;97482.47;;;13.36;94.92
70968;BME280;58629;48.808;8.820;2022-10-31T09:42:36;97470.66;;;13.53;93.56
70968;BME280;58629;48.808;8.820;2022-10-31T09:50:24;97474.03;;;14.02;88.26
70968;BME280;58629;48.808;8.820;2022-10-31T09:53:02;97477.16;;;14.13;87.65
70968;BME280;58629;48.808;8.820;2022-10-31T09:55:36;97476.03;;;14.26;87.02
70968;BME280;58629;48.808;8.820;2022-10-31T09:58:04;97481.84;;;14.37;86.64
70968;BME280;58629;48.808;8.820;2022-10-31T10:00:30;97470.91;;;14.48;84.65
70968;BME280;58629;48.808;8.820;2022-10-31T10:06:20;97465.09;;;14.78;82.80
70968;BME280;58629;48.808;8.820;2022-10-31T10:08:47;97465.94;;;14.88;82.46
70968;BME280;58629;48.808;8.820;2022-10-31T10:11:28;97453.69;;;15.03;84.07
70968;BME280;58629;48.808;8.820;2022-10-31T10:14:05;97441.53;;;15.14;84.74
70968;BME280;58629;48.808;8.820;2022-10-31T10:17:05;97446.75;;;15.30;84.88
70968;BME280;58629;48.808;8.820;2022-10-31T10:22:23;97448.09;;;15.60;83.81
70968;BME280;58629;48.808;8.820;2022-10-31T10:30:23;97440.00;;;15.85;82.35
70968;BME280;58629;48.808;8.820;2022-10-31T10:32:53;97441.19;;;15.84;80.86
70968;BME280;58629;48.808;8.820;2022-10-31T10:37:50;97444.34;;;16.04;80.82
70968;BME280;58629;48.808;8.820;2022-10-31T10:40:19;97444.34;;;16.04;80.74
70968;BME280;58629;48.808;8.820;2022-10-31T10:43:19;97442.78;;;15.94;78.03
70968;BME280;58629;48.808;8.820;2022-10-31T10:46:19;97443.31;;;16.11;81.18
70968;BME280;58629;48.808;8.820;2022-10-31T10:49:18;97439.22;;;16.19;81.18
70968;BME280;58629;48.808;8.820;2022-10-31T10:51:55;97425.81;;;16.31;81.70
70968;BME280;58629;48.808;8.820;2022-10-31T10:55:12;97428.53;;;16.40;81.24
70968;BME280;58629;48.808;8.820;2022-10-31T10:59:44;97411.44;;;16.60;79.87
70968;BME280;58629;48.808;8.820;2022-10-31T11:02:20;97405.06;;;16.66;78.51
70968;BME280;58629;48.808;8.820;2022-10-31T11:04:50;97396.81;;;16.73;78.97
70968;BME280;58629;48.808;8.820;2022-10-31T11:07:16;97391.16;;;16.80;78.18
70968;BME280;58629;48.808;8.820;2022-10-31T11:09:41;97389.84;;;16.85;78.07
70968;BME280;58629;48.808;8.820;2022-10-31T11:12:09;97378.25;;;16.88;78.33
70968;BME280;58629;48.808;8.820;2022-10-31T11:14:44;97381.53;;;16.92;78.22
70968;BME280;58629;48.808;8.820;2022-10-31T11:17:19;97382.16;;;16.96;78.22
70968;BME280;58629;48.808;8.820;2022-10-31T11:19:45;97382.03;;;16.99;77.81
70968;BME280;58629;48.808;8.820;2022-10-31T11:22:16;97392.28;;;17.01;77.79
70968;BME280;58629;48.808;8.820;2022-10-31T11:24:43;97382.94;;;17.05;77.71
70968;BME280;58629;48.808;8.820;2022-10-31T11:27:19;97383.38;;;17.04;77.34
70968;BME280;58629;48.808;8.820;2022-10-31T11:29:45;97383.22;;;17.07;76.48
70968;BME280;58629;48.808;8.820;2022-10-31T11:32:37;97369.44;;;17.18;77.20
70968;BME280;58629;48.808;8.820;2022-10-31T11:35:11;97369.16;;;17.25;76.88
70968;BME280;58629;48.808;8.820;2022-10-31T11:37:42;97367.09;;;17.29;76.17
70968;BME280;58629;48.808;8.820;2022-10-31T11:40:17;97377.03;;;17.38;76.18
70968;BME280;58629;48.808;8.820;2022-10-31T11:42:43;97367.53;;;17.46;76.02
70968;BME280;58629;48.808;8.820;2022-10-31T11:45:17;97372.28;;;17.42;75.21
70968;BME280;58629;48.808;8.820;2022-10-31T11:47:46;97358.59;;;17.40;76.67
70968;BME280;58629;48.808;8.820;2022-10-31T11:50:20;97356.69;;;17.49;77.09
70968;BME280;58629;48.808;8.820;2022-10-31T11:52:46;97354.50;;;17.57;76.67
70968;BME280;58629;48.808;8.820;2022-10-31T11:57:45;97352.06;;;17.77;76.71
70968;BME280;58629;48.808;8.820;2022-10-31T12:00:26;97351.34;;;17.85;75.39
70968;BME280;58629;48.808;8.820;2022-10-31T12:05:51;97327.81;;;17.98;74.24
70968;BME280;58629;48.808;8.820;2022-10-31T12:08:18;97326.00;;;18.04;73.30
70968;BME280;58629;48.808;8.820;2022-10-31T12:13:48;97320.34;;;18.11;72.03
70968;BME280;58629;48.808;8.820;2022-10-31T12:16:26;97324.34;;;18.16;72.98
70968;BME280;58629;48.808;8.820;2022-10-31T12:19:00;97318.81;;;18.19;73.16
70968;BME280;58629;48.808;8.820;2022-10-31T12:21:48;97314.78;;;18.24;73.83
70968;BME280;58629;48.808;8.820;2022-10-31T12:24:29;97313.88;;;18.27;73.93
70968;BME280;58629;48.808;8.820;2022-10-31T12:32:22;97308.19;;;17.92;73.70
70968;BME280;58629;48.808;8.820;2022-10-31T12:37:51;97302.13;;;17.65;74.99
70968;BME280;58629;48.808;8.820;2022-10-31T12:54:15;97255.84;;;17.19;75.96
70968;BME280;58629;48.808;8.820;2022-10-31T12:57:13;97258.34;;;17.13;77.03
70968;BME280;58629;48.808;8.820;2022-10-31T12:59:48;97242.91;;;17.08;76.66
70968;BME280;58629;48.808;8.820;2022-10-31T13:02:35;97236.97;;;17.04;77.75
70968;BME280;58629;48.808;8.820;2022-10-31T13:05:27;97235.63;;;17.00;78.02
70968;BME280;58629;48.808;8.820;2022-10-31T13:08:04;97229.97;;;16.98;79.27
70968;BME280;58629;48.808;8.820;2022-10-31T13:13:26;97229.97;;;16.98;80.17
70968;BME280;58629;48.808;8.820;2022-10-31T13:16:15;97239.06;;;17.18;78.33
70968;BME280;58629;48.808;8.820;2022-10-31T13:18:49;97241.84;;;17.42;76.50
70968;BME280;58629;48.808;8.820;2022-10-31T13:21:39;97244.19;;;17.85;75.77
70968;BME280;58629;48.808;8.820;2022-10-31T13:24:13;97247.97;;;18.11;72.68
70968;BME280;58629;48.808;8.820;2022-10-31T13:26:54;97238.41;;;18.19;72.22
70968;BME280;58629;48.808;8.820;2022-10-31T13:29:33;97229.53;;;18.37;71.68
70968;BME280;58629;48.808;8.820;2022-10-31T13:32:04;97222.25;;;18.38;70.46
70968;BME280;58629;48.808;8.820;2022-10-31T13:34:34;97223.03;;;18.29;71.48
70968;BME280;58629;48.808;8.820;2022-10-31T13:37:13;97226.09;;;18.37;71.61
70968;BME280;58629;48.808;8.820;2022-10-31T13:45:25;97221.88;;;18.21;72.43
70968;BME280;58629;48.808;8.820;2022-10-31T13:48:01;97208.84;;;18.05;72.94
70968;BME280;58629;48.808;8.820;2022-10-31T13:50:54;97211.88;;;17.89;73.75
70968;BME280;58629;48.808;8.820;2022-10-31T13:53:22;97208.34;;;17.74;74.36
70968;BME280;58629;48.808;8.820;2022-10-31T13:56:04;97195.88;;;17.62;73.95
70968;BME280;58629;48.808;8.820;2022-10-31T13:58:35;97193.81;;;17.57;74.68
70968;BME280;58629;48.808;8.820;2022-10-31T14:03:36;97186.31;;;17.79;74.73
70968;BME280;58629;48.808;8.820;2022-10-31T14:06:03;97186.13;;;17.91;74.51
70968;BME280;58629;48.808;8.820;2022-10-31T14:08:32;97188.34;;;17.93;74.62
70968;BME280;58629;48.808;8.820;2022-10-31T14:10:58;97187.63;;;17.92;75.03
70968;BME280;58629;48.808;8.820;2022-10-31T14:13:31;97189.72;;;17.88;74.37
70968;BME280;58629;48.808;8.820;2022-10-31T14:16:00;97192.91;;;18.01;74.42
70968;BME280;58629;48.808;8.820;2022-10-31T14:18:32;97189.66;;;17.97;74.29
70968;BME280;58629;48.808;8.820;2022-10-31T14:20:58;97178.81;;;17.92;74.18
70968;BME280;58629;48.808;8.820;2022-10-31T14:23:34;97177.63;;;17.93;73.60
70968;BME280;58629;48.808;8.820;2022-10-31T14:29:28;97180.69;;;18.09;73.59
70968;BME280;58629;48.808;8.820;2022-10-31T14:37:28;97187.56;;;18.01;74.15
70968;BME280;58629;48.808;8.820;2022-10-31T14:40:26;97179.66;;;18.07;71.36
70968;BME280;58629;48.808;8.820;2022-10-31T14:49:01;97173.50;;;17.83;75.80